sensor_id;sensor_type;location;lat;lon;timestamp;P1;durP1;ratioP1;P2;durP2;ratioP2
5696;SDS011;2873;50.966;7.210;2023-02-28T00:00:25;3.33;;;2.60;;
5696;SDS011;2873;50.966;7.210;2023-02-28T00:02:51;4.72;;;2.70;;
5696;SDS011;2873;50.966;7.210;2023-02-28T00:05:17;7.10;;;2.40;;
5696;SDS011;2873;50.966;7.210;2023-02-28T00:07:45;8.63;;;2.50;;
5696;SDS011;2873;50.966;7.210;2023-02-28T00:10:13;4.03;;;2.60;;
5696;SDS011;2873;50.966;7.210;2023-02-28T00:12:40;4.75;;;2.45;;
5696;SDS011;2873;50.966;7.210;2023-02-28T00:15:07;3.47;;;2.30;;
5696;SDS011;2873;50.966;7.210;2023-02-28T00:17:35;2.92;;;2.10;;
5696;SDS011;2873;50.966;7.210;2023-02-28T00:20:01;3.53;;;2.27;;
5696;SDS011;2873;50.966;7.210;2023-02-28T00:22:41;3.35;;;2.22;;
5696;SDS011;2873;50.966;7.210;2023-02-28T00:25:12;4.20;;;2.30;;
5696;SDS011;2873;50.966;7.210;2023-02-28T00:27:40;2.80;;;2.00;;
5696;SDS011;2873;50.966;7.210;2023-02-28T00:30:07;2.88;;;2.30;;
5696;SDS011;2873;50.966;7.210;2023-02-28T00:32:36;2.50;;;2.30;;
5696;SDS011;2873;50.966;7.210;2023-02-28T00:35:02;3.73;;;2.50;;
5696;SDS011;2873;50.966;7.210;2023-02-28T00:37:28;2.60;;;2.40;;
5696;SDS011;2873;50.966;7.210;2023-02-28T00:39:53;2.50;;;1.95;;
5696;SDS011;2873;50.966;7.210;2023-02-28T00:42:19;2.30;;;2.00;;
5696;SDS011;2873;50.966;7.210;2023-02-28T00:44:44;2.67;;;2.22;;
5696;SDS011;2873;50.966;7.210;2023-02-28T00:47:10;3.80;;;2.40;;
5696;SDS011;2873;50.966;7.210;2023-02-28T00:49:35;2.40;;;1.90;;
5696;SDS011;2873;50.966;7.210;2023-02-28T00:52:01;2.70;;;2.20;;
5696;SDS011;2873;50.966;7.210;2023-02-28T00:54:27;4.00;;;2.30;;
5696;SDS011;2873;50.966;7.210;2023-02-28T00:56:52;4.30;;;2.63;;
5696;SDS011;2873;50.966;7.210;2023-02-28T00:59:18;2.60;;;2.27;;
5696;SDS011;2873;50.966;7.210;2023-02-28T01:01:44;3.00;;;2.30;;
5696;SDS011;2873;50.966;7.210;2023-02-28T01:04:10;2.40;;;2.20;;
5696;SDS011;2873;50.966;7.210;2023-02-28T01:06:37;2.60;;;2.40;;
5696;SDS011;2873;50.966;7.210;2023-02-28T01:09:03;4.80;;;2.40;;
5696;SDS011;2873;50.966;7.210;2023-02-28T01:11:30;4.47;;;2.67;;
5696;SDS011;2873;50.966;7.210;2023-02-28T01:13:57;2.47;;;2.10;;
5696;SDS011;2873;50.966;7.210;2023-02-28T01:16:23;3.20;;;2.90;;
5696;SDS011;2873;50.966;7.210;2023-02-28T01:18:48;3.63;;;2.42;;
5696;SDS011;2873;50.966;7.210;2023-02-28T01:21:16;3.05;;;2.20;;
5696;SDS011;2873;50.966;7.210;2023-02-28T01:23:43;4.70;;;2.30;;
5696;SDS011;2873;50.966;7.210;2023-02-28T01:26:10;2.40;;;2.20;;
5696;SDS011;2873;50.966;7.210;2023-02-28T01:28:38;4.10;;;2.40;;
5696;SDS011;2873;50.966;7.210;2023-02-28T01:31:04;2.10;;;1.90;;
5696;SDS011;2873;50.966;7.210;2023-02-28T01:33:30;4.57;;;2.30;;
5696;SDS011;2873;50.966;7.210;2023-02-28T01:38:26;2.05;;;1.90;;
5696;SDS011;2873;50.966;7.210;2023-02-28T01:40:52;3.80;;;2.45;;
5696;SDS011;2873;50.966;7.210;2023-02-28T01:43:22;2.40;;;2.20;;
5696;SDS011;2873;50.966;7.210;2023-02-28T01:45:49;2.55;;;2.40;;
5696;SDS011;2873;50.966;7.210;2023-02-28T01:48:15;1.90;;;1.80;;
5696;SDS011;2873;50.966;7.210;2023-02-28T01:50:43;4.80;;;2.47;;
5696;SDS011;2873;50.966;7.210;2023-02-28T01:53:12;3.10;;;2.33;;
5696;SDS011;2873;50.966;7.210;2023-02-28T01:55:42;3.50;;;2.30;;
5696;SDS011;2873;50.966;7.210;2023-02-28T01:58:13;3.20;;;2.10;;
5696;SDS011;2873;50.966;7.210;2023-02-28T02:00:39;4.47;;;2.20;;
5696;SDS011;2873;50.966;7.210;2023-02-28T02:03:11;2.85;;;2.65;;
5696;SDS011;2873;50.966;7.210;2023-02-28T02:05:39;3.20;;;2.40;;
5696;SDS011;2873;50.966;7.210;2023-02-28T02:08:09;4.25;;;2.65;;
5696;SDS011;2873;50.966;7.210;2023-02-28T02:10:50;3.22;;;2.20;;
5696;SDS011;2873;50.966;7.210;2023-02-28T02:18:43;3.40;;;2.25;;
5696;SDS011;2873;50.966;7.210;2023-02-28T02:24:20;2.30;;;2.20;;
5696;SDS011;2873;50.966;7.210;2023-02-28T02:35:53;3.67;;;2.50;;
5696;SDS011;2873;50.966;7.210;2023-02-28T02:41:04;5.70;;;2.60;;
5696;SDS011;2873;50.966;7.210;2023-02-28T02:43:33;2.43;;;2.20;;
5696;SDS011;2873;50.966;7.210;2023-02-28T02:46:11;2.30;;;2.20;;
5696;SDS011;2873;50.966;7.210;2023-02-28T02:48:42;4.20;;;2.10;;
5696;SDS011;2873;50.966;7.210;2023-02-28T02:51:12;4.05;;;1.88;;
5696;SDS011;2873;50.966;7.210;2023-02-28T02:53:57;2.03;;;1.92;;
5696;SDS011;2873;50.966;7.210;2023-02-28T02:56:28;2.40;;;2.20;;
5696;SDS011;2873;50.966;7.210;2023-02-28T02:59:00;2.10;;;1.90;;
5696;SDS011;2873;50.966;7.210;2023-02-28T03:01:32;5.60;;;2.17;;
5696;SDS011;2873;50.966;7.210;2023-02-28T03:04:10;3.90;;;2.20;;
5696;SDS011;2873;50.966;7.210;2023-02-28T03:06:40;1.80;;;1.70;;
5696;SDS011;2873;50.966;7.210;2023-02-28T03:09:05;4.10;;;2.40;;
5696;SDS011;2873;50.966;7.210;2023-02-28T03:11:31;3.47;;;2.30;;
5696;SDS011;2873;50.966;7.210;2023-02-28T03:24:43;2.58;;;2.38;;
5696;SDS011;2873;50.966;7.210;2023-02-28T03:27:27;2.08;;;1.98;;
5696;SDS011;2873;50.966;7.210;2023-02-28T03:32:29;4.75;;;2.20;;
5696;SDS011;2873;50.966;7.210;2023-02-28T03:35:17;1.92;;;1.70;;
5696;SDS011;2873;50.966;7.210;2023-02-28T03:37:48;3.25;;;2.08;;
5696;SDS011;2873;50.966;7.210;2023-02-28T03:40:25;2.15;;;2.05;;
5696;SDS011;2873;50.966;7.210;2023-02-28T03:42:57;4.82;;;2.00;;
5696;SDS011;2873;50.966;7.210;2023-02-28T03:45:30;5.20;;;2.15;;
5696;SDS011;2873;50.966;7.210;2023-02-28T03:48:13;2.25;;;2.05;;
5696;SDS011;2873;50.966;7.210;2023-02-28T03:50:44;2.60;;;1.80;;
5696;SDS011;2873;50.966;7.210;2023-02-28T03:53:25;2.80;;;2.22;;
5696;SDS011;2873;50.966;7.210;2023-02-28T03:56:13;2.63;;;1.80;;
5696;SDS011;2873;50.966;7.210;2023-02-28T03:58:49;3.05;;;1.92;;
5696;SDS011;2873;50.966;7.210;2023-02-28T04:01:20;2.63;;;2.00;;
5696;SDS011;2873;50.966;7.210;2023-02-28T04:03:50;2.78;;;2.00;;
5696;SDS011;2873;50.966;7.210;2023-02-28T04:06:20;2.80;;;1.85;;
5696;SDS011;2873;50.966;7.210;2023-02-28T04:08:47;3.20;;;2.40;;
5696;SDS011;2873;50.966;7.210;2023-02-28T04:13:59;1.70;;;1.70;;
5696;SDS011;2873;50.966;7.210;2023-02-28T04:16:26;2.72;;;2.08;;
5696;SDS011;2873;50.966;7.210;2023-02-28T04:18:51;1.90;;;1.80;;
5696;SDS011;2873;50.966;7.210;2023-02-28T04:21:17;4.10;;;2.00;;
5696;SDS011;2873;50.966;7.210;2023-02-28T04:23:45;2.47;;;2.13;;
5696;SDS011;2873;50.966;7.210;2023-02-28T04:26:11;2.33;;;2.20;;
5696;SDS011;2873;50.966;7.210;2023-02-28T04:28:37;2.80;;;2.00;;
5696;SDS011;2873;50.966;7.210;2023-02-28T04:31:03;3.00;;;2.10;;
5696;SDS011;2873;50.966;7.210;2023-02-28T04:33:30;2.13;;;2.00;;
5696;SDS011;2873;50.966;7.210;2023-02-28T04:38:27;2.17;;;2.05;;
5696;SDS011;2873;50.966;7.210;2023-02-28T04:40:53;2.00;;;1.90;;
5696;SDS011;2873;50.966;7.210;2023-02-28T04:43:21;4.20;;;2.20;;
5696;SDS011;2873;50.966;7.210;2023-02-28T04:45:46;1.83;;;1.73;;
5696;SDS011;2873;50.966;7.210;2023-02-28T04:48:12;2.20;;;2.10;;
5696;SDS011;2873;50.966;7.210;2023-02-28T04:50:37;2.50;;;2.30;;
5696;SDS011;2873;50.966;7.210;2023-02-28T04:53:03;2.50;;;2.30;;
5696;SDS011;2873;50.966;7.210;2023-02-28T04:55:28;1.90;;;1.80;;
5696;SDS011;2873;50.966;7.210;2023-02-28T04:57:54;2.00;;;1.90;;
5696;SDS011;2873;50.966;7.210;2023-02-28T05:00:20;2.13;;;2.03;;
5696;SDS011;2873;50.966;7.210;2023-02-28T05:02:45;2.10;;;1.90;;
5696;SDS011;2873;50.966;7.210;2023-02-28T05:05:11;2.00;;;1.85;;
5696;SDS011;2873;50.966;7.210;2023-02-28T05:07:43;2.20;;;2.10;;
5696;SDS011;2873;50.966;7.210;2023-02-28T05:10:09;2.15;;;1.95;;
5696;SDS011;2873;50.966;7.210;2023-02-28T05:12:35;2.20;;;2.10;;
5696;SDS011;2873;50.966;7.210;2023-02-28T05:15:00;2.58;;;1.88;;
5696;SDS011;2873;50.966;7.210;2023-02-28T05:17:27;2.10;;;1.95;;
5696;SDS011;2873;50.966;7.210;2023-02-28T05:19:53;2.00;;;1.80;;
5696;SDS011;2873;50.966;7.210;2023-02-28T05:22:18;1.70;;;1.70;;
5696;SDS011;2873;50.966;7.210;2023-02-28T05:24:44;2.05;;;1.95;;
5696;SDS011;2873;50.966;7.210;2023-02-28T05:27:10;2.30;;;2.10;;
5696;SDS011;2873;50.966;7.210;2023-02-28T05:29:35;2.70;;;2.20;;
5696;SDS011;2873;50.966;7.210;2023-02-28T05:32:07;2.50;;;2.30;;
5696;SDS011;2873;50.966;7.210;2023-02-28T05:34:34;2.40;;;2.20;;
5696;SDS011;2873;50.966;7.210;2023-02-28T05:37:00;2.13;;;1.80;;
5696;SDS011;2873;50.966;7.210;2023-02-28T05:39:26;2.20;;;2.00;;
5696;SDS011;2873;50.966;7.210;2023-02-28T05:41:52;4.07;;;2.43;;
5696;SDS011;2873;50.966;7.210;2023-02-28T05:44:17;4.37;;;2.13;;
5696;SDS011;2873;50.966;7.210;2023-02-28T05:46:43;2.53;;;2.33;;
5696;SDS011;2873;50.966;7.210;2023-02-28T05:49:08;2.30;;;2.20;;
5696;SDS011;2873;50.966;7.210;2023-02-28T05:51:34;2.23;;;2.03;;
5696;SDS011;2873;50.966;7.210;2023-02-28T05:54:01;2.45;;;2.35;;
5696;SDS011;2873;50.966;7.210;2023-02-28T05:56:27;2.55;;;2.35;;
5696;SDS011;2873;50.966;7.210;2023-02-28T05:58:53;3.70;;;3.33;;
5696;SDS011;2873;50.966;7.210;2023-02-28T06:01:32;2.63;;;2.30;;
5696;SDS011;2873;50.966;7.210;2023-02-28T06:04:00;2.70;;;2.50;;
5696;SDS011;2873;50.966;7.210;2023-02-28T06:06:26;2.92;;;2.72;;
5696;SDS011;2873;50.966;7.210;2023-02-28T06:08:52;3.58;;;2.50;;
5696;SDS011;2873;50.966;7.210;2023-02-28T06:11:17;2.67;;;2.47;;
5696;SDS011;2873;50.966;7.210;2023-02-28T06:13:44;2.15;;;2.03;;
5696;SDS011;2873;50.966;7.210;2023-02-28T06:16:10;4.60;;;2.42;;
5696;SDS011;2873;50.966;7.210;2023-02-28T06:18:36;2.95;;;2.60;;
5696;SDS011;2873;50.966;7.210;2023-02-28T06:21:02;1.95;;;1.90;;
5696;SDS011;2873;50.966;7.210;2023-02-28T06:23:28;2.40;;;2.30;;
5696;SDS011;2873;50.966;7.210;2023-02-28T06:25:53;2.87;;;2.60;;
5696;SDS011;2873;50.966;7.210;2023-02-28T06:28:23;2.80;;;2.13;;
5696;SDS011;2873;50.966;7.210;2023-02-28T06:30:49;2.38;;;2.17;;
5696;SDS011;2873;50.966;7.210;2023-02-28T06:33:14;2.80;;;2.60;;
5696;SDS011;2873;50.966;7.210;2023-02-28T06:35:42;2.70;;;2.50;;
5696;SDS011;2873;50.966;7.210;2023-02-28T06:38:09;3.08;;;2.88;;
5696;SDS011;2873;50.966;7.210;2023-02-28T06:40:35;2.70;;;2.50;;
5696;SDS011;2873;50.966;7.210;2023-02-28T06:43:01;3.00;;;2.80;;
5696;SDS011;2873;50.966;7.210;2023-02-28T06:45:27;2.30;;;2.20;;
5696;SDS011;2873;50.966;7.210;2023-02-28T06:47:53;3.07;;;2.77;;
5696;SDS011;2873;50.966;7.210;2023-02-28T06:50:20;2.80;;;2.60;;
5696;SDS011;2873;50.966;7.210;2023-02-28T06:52:46;2.30;;;2.20;;
5696;SDS011;2873;50.966;7.210;2023-02-28T06:55:12;2.90;;;2.27;;
5696;SDS011;2873;50.966;7.210;2023-02-28T06:57:38;2.80;;;2.42;;
5696;SDS011;2873;50.966;7.210;2023-02-28T07:00:05;6.78;;;2.95;;
5696;SDS011;2873;50.966;7.210;2023-02-28T07:02:34;3.03;;;2.65;;
5696;SDS011;2873;50.966;7.210;2023-02-28T07:05:01;3.08;;;2.38;;
5696;SDS011;2873;50.966;7.210;2023-02-28T07:07:26;2.47;;;2.30;;
5696;SDS011;2873;50.966;7.210;2023-02-28T07:09:52;2.80;;;2.30;;
5696;SDS011;2873;50.966;7.210;2023-02-28T07:12:17;2.57;;;2.40;;
5696;SDS011;2873;50.966;7.210;2023-02-28T07:14:43;2.50;;;2.30;;
5696;SDS011;2873;50.966;7.210;2023-02-28T07:17:10;3.58;;;2.47;;
5696;SDS011;2873;50.966;7.210;2023-02-28T07:19:37;5.07;;;2.43;;
5696;SDS011;2873;50.966;7.210;2023-02-28T07:22:05;3.00;;;2.20;;
5696;SDS011;2873;50.966;7.210;2023-02-28T07:24:31;2.30;;;2.10;;
5696;SDS011;2873;50.966;7.210;2023-02-28T07:26:57;2.78;;;2.30;;
5696;SDS011;2873;50.966;7.210;2023-02-28T07:29:24;2.50;;;2.30;;
5696;SDS011;2873;50.966;7.210;2023-02-28T07:31:50;4.30;;;2.40;;
5696;SDS011;2873;50.966;7.210;2023-02-28T07:34:18;3.00;;;2.13;;
5696;SDS011;2873;50.966;7.210;2023-02-28T07:36:44;3.47;;;2.53;;
5696;SDS011;2873;50.966;7.210;2023-02-28T07:39:09;3.93;;;2.40;;
5696;SDS011;2873;50.966;7.210;2023-02-28T07:41:35;2.23;;;2.13;;
5696;SDS011;2873;50.966;7.210;2023-02-28T07:44:08;2.30;;;2.20;;
5696;SDS011;2873;50.966;7.210;2023-02-28T07:46:37;3.35;;;2.40;;
5696;SDS011;2873;50.966;7.210;2023-02-28T07:49:03;5.10;;;2.40;;
5696;SDS011;2873;50.966;7.210;2023-02-28T07:51:29;2.20;;;2.00;;
5696;SDS011;2873;50.966;7.210;2023-02-28T07:53:56;2.45;;;2.35;;
5696;SDS011;2873;50.966;7.210;2023-02-28T07:56:22;3.42;;;2.28;;
5696;SDS011;2873;50.966;7.210;2023-02-28T07:58:48;2.60;;;2.10;;
5696;SDS011;2873;50.966;7.210;2023-02-28T08:01:13;2.10;;;1.90;;
5696;SDS011;2873;50.966;7.210;2023-02-28T08:03:39;2.40;;;2.20;;
5696;SDS011;2873;50.966;7.210;2023-02-28T08:06:06;2.33;;;2.23;;
5696;SDS011;2873;50.966;7.210;2023-02-28T08:08:33;2.03;;;1.92;;
5696;SDS011;2873;50.966;7.210;2023-02-28T08:10:59;2.20;;;2.10;;
5696;SDS011;2873;50.966;7.210;2023-02-28T08:13:27;1.90;;;1.80;;
5696;SDS011;2873;50.966;7.210;2023-02-28T08:15:53;2.03;;;1.90;;
5696;SDS011;2873;50.966;7.210;2023-02-28T08:18:20;2.42;;;2.22;;
5696;SDS011;2873;50.966;7.210;2023-02-28T08:20:46;1.90;;;1.90;;
5696;SDS011;2873;50.966;7.210;2023-02-28T08:23:11;1.75;;;1.65;;
5696;SDS011;2873;50.966;7.210;2023-02-28T08:25:37;2.13;;;2.00;;
5696;SDS011;2873;50.966;7.210;2023-02-28T08:28:02;2.00;;;1.90;;
5696;SDS011;2873;50.966;7.210;2023-02-28T08:30:28;3.07;;;2.20;;
5696;SDS011;2873;50.966;7.210;2023-02-28T08:32:54;3.20;;;2.10;;
5696;SDS011;2873;50.966;7.210;2023-02-28T08:35:20;2.22;;;2.00;;
5696;SDS011;2873;50.966;7.210;2023-02-28T08:37:49;2.40;;;2.20;;
5696;SDS011;2873;50.966;7.210;2023-02-28T08:40:15;2.00;;;1.90;;
5696;SDS011;2873;50.966;7.210;2023-02-28T08:42:47;1.90;;;1.80;;
5696;SDS011;2873;50.966;7.210;2023-02-28T08:45:13;3.70;;;2.20;;
5696;SDS011;2873;50.966;7.210;2023-02-28T08:47:39;2.10;;;1.90;;
5696;SDS011;2873;50.966;7.210;2023-02-28T08:50:05;1.48;;;1.40;;
5696;SDS011;2873;50.966;7.210;2023-02-28T08:52:32;1.60;;;1.50;;
5696;SDS011;2873;50.966;7.210;2023-02-28T08:54:57;3.00;;;1.30;;
5696;SDS011;2873;50.966;7.210;2023-02-28T08:57:23;1.23;;;1.23;;
5696;SDS011;2873;50.966;7.210;2023-02-28T08:59:51;1.10;;;1.10;;
5696;SDS011;2873;50.966;7.210;2023-02-28T09:02:16;1.75;;;1.23;;
5696;SDS011;2873;50.966;7.210;2023-02-28T09:04:42;1.60;;;1.50;;
5696;SDS011;2873;50.966;7.210;2023-02-28T09:07:10;1.50;;;1.50;;
5696;SDS011;2873;50.966;7.210;2023-02-28T09:09:36;1.50;;;1.40;;
5696;SDS011;2873;50.966;7.210;2023-02-28T09:12:01;2.70;;;1.80;;
5696;SDS011;2873;50.966;7.210;2023-02-28T09:14:27;1.50;;;1.40;;
5696;SDS011;2873;50.966;7.210;2023-02-28T09:16:53;2.60;;;1.60;;
5696;SDS011;2873;50.966;7.210;2023-02-28T09:19:19;2.00;;;1.80;;
5696;SDS011;2873;50.966;7.210;2023-02-28T09:21:45;2.45;;;2.35;;
5696;SDS011;2873;50.966;7.210;2023-02-28T09:24:10;2.20;;;2.00;;
5696;SDS011;2873;50.966;7.210;2023-02-28T09:26:39;2.22;;;1.73;;
5696;SDS011;2873;50.966;7.210;2023-02-28T09:29:05;2.03;;;1.93;;
5696;SDS011;2873;50.966;7.210;2023-02-28T09:31:31;2.00;;;1.90;;
5696;SDS011;2873;50.966;7.210;2023-02-28T09:33:57;2.40;;;1.90;;
5696;SDS011;2873;50.966;7.210;2023-02-28T09:36:24;1.95;;;1.85;;
5696;SDS011;2873;50.966;7.210;2023-02-28T09:38:51;1.92;;;1.88;;
5696;SDS011;2873;50.966;7.210;2023-02-28T09:43:49;2.33;;;2.20;;
5696;SDS011;2873;50.966;7.210;2023-02-28T09:48:56;2.05;;;1.95;;
5696;SDS011;2873;50.966;7.210;2023-02-28T09:54:22;2.15;;;2.05;;
5696;SDS011;2873;50.966;7.210;2023-02-28T09:56:53;3.00;;;2.80;;
5696;SDS011;2873;50.966;7.210;2023-02-28T10:00:07;5.90;;;2.40;;
5696;SDS011;2873;50.966;7.210;2023-02-28T10:04:56;2.10;;;2.00;;
5696;SDS011;2873;50.966;7.210;2023-02-28T10:10:29;2.22;;;2.10;;
5696;SDS011;2873;50.966;7.210;2023-02-28T10:13:04;2.60;;;1.95;;
5696;SDS011;2873;50.966;7.210;2023-02-28T10:15:38;1.90;;;1.80;;
5696;SDS011;2873;50.966;7.210;2023-02-28T10:18:04;2.10;;;2.00;;
5696;SDS011;2873;50.966;7.210;2023-02-28T10:20:37;2.35;;;2.25;;
5696;SDS011;2873;50.966;7.210;2023-02-28T10:26:01;2.60;;;2.40;;
5696;SDS011;2873;50.966;7.210;2023-02-28T10:28:45;2.20;;;2.10;;
5696;SDS011;2873;50.966;7.210;2023-02-28T10:31:11;2.70;;;2.50;;
5696;SDS011;2873;50.966;7.210;2023-02-28T10:33:42;2.50;;;2.30;;
5696;SDS011;2873;50.966;7.210;2023-02-28T10:36:10;2.70;;;2.50;;
5696;SDS011;2873;50.966;7.210;2023-02-28T10:38:42;2.30;;;2.20;;
5696;SDS011;2873;50.966;7.210;2023-02-28T10:41:10;2.40;;;2.20;;
5696;SDS011;2873;50.966;7.210;2023-02-28T10:43:38;2.40;;;2.20;;
5696;SDS011;2873;50.966;7.210;2023-02-28T10:46:11;3.05;;;1.95;;
5696;SDS011;2873;50.966;7.210;2023-02-28T10:48:40;2.50;;;2.40;;
5696;SDS011;2873;50.966;7.210;2023-02-28T10:51:14;1.90;;;1.80;;
5696;SDS011;2873;50.966;7.210;2023-02-28T10:56:18;2.10;;;1.67;;
5696;SDS011;2873;50.966;7.210;2023-02-28T11:01:42;2.00;;;1.90;;
5696;SDS011;2873;50.966;7.210;2023-02-28T11:04:17;2.17;;;2.08;;
5696;SDS011;2873;50.966;7.210;2023-02-28T11:06:43;2.28;;;2.08;;
5696;SDS011;2873;50.966;7.210;2023-02-28T11:09:18;2.20;;;2.00;;
5696;SDS011;2873;50.966;7.210;2023-02-28T11:12:04;4.13;;;2.30;;
5696;SDS011;2873;50.966;7.210;2023-02-28T11:14:47;2.40;;;2.20;;
5696;SDS011;2873;50.966;7.210;2023-02-28T11:17:22;2.38;;;2.17;;
5696;SDS011;2873;50.966;7.210;2023-02-28T11:19:51;2.40;;;2.20;;
5696;SDS011;2873;50.966;7.210;2023-02-28T11:22:23;2.00;;;1.90;;
5696;SDS011;2873;50.966;7.210;2023-02-28T11:24:53;4.10;;;2.25;;
5696;SDS011;2873;50.966;7.210;2023-02-28T11:29:58;3.17;;;2.97;;
5696;SDS011;2873;50.966;7.210;2023-02-28T11:32:26;2.80;;;2.60;;
5696;SDS011;2873;50.966;7.210;2023-02-28T11:37:34;3.15;;;2.40;;
5696;SDS011;2873;50.966;7.210;2023-02-28T11:40:01;3.10;;;2.80;;
5696;SDS011;2873;50.966;7.210;2023-02-28T11:45:15;3.30;;;3.00;;
5696;SDS011;2873;50.966;7.210;2023-02-28T11:47:48;3.70;;;2.80;;
5696;SDS011;2873;50.966;7.210;2023-02-28T11:50:41;3.45;;;2.63;;
5696;SDS011;2873;50.966;7.210;2023-02-28T12:17:33;3.28;;;2.97;;
5696;SDS011;2873;50.966;7.210;2023-02-28T12:25:48;4.68;;;3.00;;
5696;SDS011;2873;50.966;7.210;2023-02-28T12:28:42;2.97;;;2.78;;
5696;SDS011;2873;50.966;7.210;2023-02-28T12:31:17;3.10;;;2.90;;
5696;SDS011;2873;50.966;7.210;2023-02-28T12:33:48;3.63;;;3.33;;
5696;SDS011;2873;50.966;7.210;2023-02-28T12:36:18;3.10;;;2.90;;
5696;SDS011;2873;50.966;7.210;2023-02-28T12:44:04;3.70;;;2.90;;
5696;SDS011;2873;50.966;7.210;2023-02-28T12:46:41;4.18;;;3.05;;
5696;SDS011;2873;50.966;7.210;2023-02-28T12:49:15;3.83;;;3.60;;
5696;SDS011;2873;50.966;7.210;2023-02-28T12:51:49;4.65;;;3.10;;
5696;SDS011;2873;50.966;7.210;2023-02-28T12:56:56;3.10;;;2.90;;
5696;SDS011;2873;50.966;7.210;2023-02-28T13:02:24;3.20;;;3.00;;
5696;SDS011;2873;50.966;7.210;2023-02-28T13:07:55;3.28;;;2.97;;
5696;SDS011;2873;50.966;7.210;2023-02-28T13:10:53;3.20;;;2.90;;
5696;SDS011;2873;50.966;7.210;2023-02-28T13:13:20;3.30;;;3.10;;
5696;SDS011;2873;50.966;7.210;2023-02-28T13:18:37;3.30;;;3.00;;
5696;SDS011;2873;50.966;7.210;2023-02-28T13:21:24;3.58;;;3.28;;
5696;SDS011;2873;50.966;7.210;2023-02-28T13:26:23;3.42;;;3.22;;
5696;SDS011;2873;50.966;7.210;2023-02-28T13:34:31;3.42;;;3.13;;
5696;SDS011;2873;50.966;7.210;2023-02-28T13:40:50;4.93;;;3.13;;
5696;SDS011;2873;50.966;7.210;2023-02-28T13:43:01;4.60;;;3.53;;
5696;SDS011;2873;50.966;7.210;2023-02-28T13:45:28;3.70;;;3.40;;
5696;SDS011;2873;50.966;7.210;2023-02-28T13:50:51;3.65;;;3.35;;
5696;SDS011;2873;50.966;7.210;2023-02-28T13:53:26;3.67;;;3.37;;
5696;SDS011;2873;50.966;7.210;2023-02-28T13:58:53;4.00;;;3.70;;
5696;SDS011;2873;50.966;7.210;2023-02-28T14:04:49;4.15;;;3.80;;
5696;SDS011;2873;50.966;7.210;2023-02-28T14:07:20;3.60;;;3.40;;
5696;SDS011;2873;50.966;7.210;2023-02-28T14:09:57;4.10;;;3.80;;
5696;SDS011;2873;50.966;7.210;2023-02-28T14:12:52;3.70;;;3.40;;
5696;SDS011;2873;50.966;7.210;2023-02-28T14:20:52;3.20;;;3.00;;
5696;SDS011;2873;50.966;7.210;2023-02-28T14:26:34;3.40;;;3.10;;
5696;SDS011;2873;50.966;7.210;2023-02-28T14:29:37;3.97;;;3.63;;
5696;SDS011;2873;50.966;7.210;2023-02-28T14:37:42;4.33;;;3.67;;
5696;SDS011;2873;50.966;7.210;2023-02-28T14:40:13;3.40;;;3.20;;
5696;SDS011;2873;50.966;7.210;2023-02-28T14:42:45;5.40;;;3.75;;
5696;SDS011;2873;50.966;7.210;2023-02-28T14:45:22;3.97;;;3.67;;
5696;SDS011;2873;50.966;7.210;2023-02-28T14:47:51;3.72;;;3.42;;
5696;SDS011;2873;50.966;7.210;2023-02-28T14:50:18;3.70;;;3.45;;
5696;SDS011;2873;50.966;7.210;2023-02-28T14:52:45;6.00;;;3.42;;
5696;SDS011;2873;50.966;7.210;2023-02-28T14:55:15;3.50;;;3.20;;
5696;SDS011;2873;50.966;7.210;2023-02-28T14:58:03;3.80;;;3.50;;
5696;SDS011;2873;50.966;7.210;2023-02-28T15:00:32;4.05;;;3.70;;
5696;SDS011;2873;50.966;7.210;2023-02-28T15:03:19;4.00;;;3.58;;
5696;SDS011;2873;50.966;7.210;2023-02-28T15:05:53;5.30;;;4.20;;
5696;SDS011;2873;50.966;7.210;2023-02-28T15:08:23;6.65;;;4.03;;
5696;SDS011;2873;50.966;7.210;2023-02-28T15:10:50;3.80;;;3.50;;
5696;SDS011;2873;50.966;7.210;2023-02-28T15:13:26;4.27;;;3.87;;
5696;SDS011;2873;50.966;7.210;2023-02-28T15:19:14;3.80;;;3.50;;
5696;SDS011;2873;50.966;7.210;2023-02-28T15:21:49;3.30;;;3.10;;
5696;SDS011;2873;50.966;7.210;2023-02-28T15:26:53;4.00;;;3.60;;
5696;SDS011;2873;50.966;7.210;2023-02-28T15:29:23;4.00;;;3.60;;
5696;SDS011;2873;50.966;7.210;2023-02-28T15:31:55;5.38;;;3.40;;
5696;SDS011;2873;50.966;7.210;2023-02-28T15:34:41;3.80;;;3.50;;
5696;SDS011;2873;50.966;7.210;2023-02-28T15:40:07;4.65;;;3.70;;
5696;SDS011;2873;50.966;7.210;2023-02-28T15:42:38;4.55;;;4.10;;
5696;SDS011;2873;50.966;7.210;2023-02-28T15:45:04;3.70;;;3.40;;
5696;SDS011;2873;50.966;7.210;2023-02-28T15:47:30;3.77;;;3.47;;
5696;SDS011;2873;50.966;7.210;2023-02-28T15:50:00;7.55;;;3.75;;
5696;SDS011;2873;50.966;7.210;2023-02-28T15:52:34;3.88;;;3.58;;
5696;SDS011;2873;50.966;7.210;2023-02-28T15:55:15;6.10;;;4.30;;
5696;SDS011;2873;50.966;7.210;2023-02-28T15:57:44;3.70;;;3.50;;
5696;SDS011;2873;50.966;7.210;2023-02-28T16:00:13;3.72;;;3.30;;
5696;SDS011;2873;50.966;7.210;2023-02-28T16:02:41;4.00;;;3.60;;
5696;SDS011;2873;50.966;7.210;2023-02-28T16:07:36;3.67;;;3.38;;
5696;SDS011;2873;50.966;7.210;2023-02-28T16:10:07;3.22;;;3.03;;
5696;SDS011;2873;50.966;7.210;2023-02-28T16:12:36;3.63;;;3.30;;
5696;SDS011;2873;50.966;7.210;2023-02-28T16:15:07;4.50;;;3.20;;
5696;SDS011;2873;50.966;7.210;2023-02-28T16:17:41;3.08;;;2.88;;
5696;SDS011;2873;50.966;7.210;2023-02-28T16:22:40;3.90;;;3.60;;
5696;SDS011;2873;50.966;7.210;2023-02-28T16:25:07;3.60;;;3.30;;
5696;SDS011;2873;50.966;7.210;2023-02-28T16:27:36;3.58;;;3.28;;
5696;SDS011;2873;50.966;7.210;2023-02-28T16:30:03;3.50;;;3.13;;
5696;SDS011;2873;50.966;7.210;2023-02-28T16:32:31;3.30;;;3.05;;
5696;SDS011;2873;50.966;7.210;2023-02-28T16:35:00;3.58;;;3.28;;
5696;SDS011;2873;50.966;7.210;2023-02-28T16:37:26;3.95;;;3.25;;
5696;SDS011;2873;50.966;7.210;2023-02-28T16:39:52;3.25;;;2.85;;
5696;SDS011;2873;50.966;7.210;2023-02-28T16:42:25;4.27;;;3.77;;
5696;SDS011;2873;50.966;7.210;2023-02-28T16:44:53;4.20;;;3.80;;
5696;SDS011;2873;50.966;7.210;2023-02-28T16:47:20;3.35;;;3.05;;
5696;SDS011;2873;50.966;7.210;2023-02-28T16:49:46;4.00;;;3.40;;
5696;SDS011;2873;50.966;7.210;2023-02-28T16:52:12;7.07;;;3.50;;
5696;SDS011;2873;50.966;7.210;2023-02-28T16:54:39;3.70;;;3.40;;
5696;SDS011;2873;50.966;7.210;2023-02-28T16:57:06;3.40;;;3.03;;
5696;SDS011;2873;50.966;7.210;2023-02-28T16:59:36;3.20;;;3.00;;
5696;SDS011;2873;50.966;7.210;2023-02-28T17:02:07;4.22;;;3.40;;
5696;SDS011;2873;50.966;7.210;2023-02-28T17:04:37;3.03;;;2.70;;
5696;SDS011;2873;50.966;7.210;2023-02-28T17:07:03;4.70;;;3.40;;
5696;SDS011;2873;50.966;7.210;2023-02-28T17:09:28;3.35;;;3.10;;
5696;SDS011;2873;50.966;7.210;2023-02-28T17:11:54;5.00;;;3.80;;
5696;SDS011;2873;50.966;7.210;2023-02-28T17:14:21;10.00;;;6.95;;
5696;SDS011;2873;50.966;7.210;2023-02-28T17:16:48;27.88;;;16.05;;
5696;SDS011;2873;50.966;7.210;2023-02-28T17:19:15;25.35;;;16.85;;
5696;SDS011;2873;50.966;7.210;2023-02-28T17:21:41;18.80;;;13.02;;
5696;SDS011;2873;50.966;7.210;2023-02-28T17:24:08;9.57;;;5.85;;
5696;SDS011;2873;50.966;7.210;2023-02-28T17:26:36;8.90;;;4.50;;
5696;SDS011;2873;50.966;7.210;2023-02-28T17:29:04;5.13;;;4.60;;
5696;SDS011;2873;50.966;7.210;2023-02-28T17:31:36;6.15;;;5.00;;
5696;SDS011;2873;50.966;7.210;2023-02-28T17:34:03;4.57;;;3.90;;
5696;SDS011;2873;50.966;7.210;2023-02-28T17:36:29;10.53;;;6.90;;
5696;SDS011;2873;50.966;7.210;2023-02-28T17:38:54;8.20;;;6.22;;
5696;SDS011;2873;50.966;7.210;2023-02-28T17:41:20;4.30;;;3.80;;
5696;SDS011;2873;50.966;7.210;2023-02-28T17:43:46;6.43;;;5.20;;
5696;SDS011;2873;50.966;7.210;2023-02-28T17:46:14;6.40;;;4.10;;
5696;SDS011;2873;50.966;7.210;2023-02-28T17:48:43;14.40;;;4.70;;
5696;SDS011;2873;50.966;7.210;2023-02-28T17:51:10;6.07;;;4.43;;
5696;SDS011;2873;50.966;7.210;2023-02-28T17:53:37;12.05;;;4.75;;
5696;SDS011;2873;50.966;7.210;2023-02-28T17:56:03;8.50;;;4.90;;
5696;SDS011;2873;50.966;7.210;2023-02-28T17:58:29;6.15;;;4.40;;
5696;SDS011;2873;50.966;7.210;2023-02-28T18:00:55;7.43;;;4.57;;
5696;SDS011;2873;50.966;7.210;2023-02-28T18:03:21;7.63;;;5.00;;
5696;SDS011;2873;50.966;7.210;2023-02-28T18:05:49;5.75;;;4.70;;
5696;SDS011;2873;50.966;7.210;2023-02-28T18:08:14;7.03;;;5.25;;
5696;SDS011;2873;50.966;7.210;2023-02-28T18:10:41;8.73;;;5.32;;
5696;SDS011;2873;50.966;7.210;2023-02-28T18:13:06;14.27;;;8.23;;